Accueil
METAR-TAF:

METAR-TAF

Aéroports :

Aéroport de Dole-Jura

Dole, France

latitude: 47-02-34N, longitude: 005-26-06E, altitude: 196 m

Observation

Le bulletin a été fait il y a 27 minutes, à 02:00 UTC
Vent 6 kt de nord
Température 6°C
Humidité 81%
Pression 1024 hPa
Visibilité: 6000 m

METAR: LFGJ 240200Z AUTO 35006KT 6000 NSC 06/03 Q1024

Heure: 03:27 (02:27 UTC)

Prévision

Le bulletin a été fait il y a 12 heures et 27 minutes, à 14:00 UTC
Prévision valable du 23 à 15 UTC au 23 à 24 UTC
Vent 5 kt de nord/nord-est
Visibilité 10 km ou plus
pas de nuages en-dessous de 1500 mètres et pas de cumulonimbus.
Temporairement
du 23 à 22 UTC au 23 à 24 UTC
Visibilité: 3000 m
brume

TAF: LFGJ 231400Z 2315/2324 02005KT CAVOK TEMPO 2322/2324 3000 BR

Observations et prévisions météorologiques de plus de 4000 aéroports (messages METAR et TAF).

Les stations disponibles sont représentées par des disques jaunes et rouges sur la carte.

Passer la souris dessus pour voir le nom de la station.

Cliquer dessus pour voir les observations et prévisions météorologiques.

Pour changer de carte: cliquez sur les boutons verts avec une croix noire pour zoomer, sur le bouton vert avec un tiret pour effectuer un zoom arrière, ou sur les flèches vertes pour les cartes adjacentes.


METAR-TAF: